createdAt,value
2018-06-12T00:00:58.651Z,21.10
2018-06-12T00:03:29.459Z,21.00
2018-06-12T00:06:00.235Z,20.90
2018-06-12T00:08:32.454Z,20.90
2018-06-12T00:11:03.273Z,20.90
2018-06-12T00:13:34.017Z,20.90
2018-06-12T00:16:04.788Z,20.80
2018-06-12T00:21:06.922Z,20.90
2018-06-12T00:23:38.075Z,20.80
2018-06-12T00:26:08.919Z,20.80
2018-06-12T00:28:39.789Z,20.70
2018-06-12T00:33:42.965Z,20.80
2018-06-12T00:36:13.760Z,20.70
2018-06-12T00:38:44.576Z,20.70
2018-06-12T00:41:17.189Z,20.60
2018-06-12T00:43:50.825Z,20.60
2018-06-12T00:46:21.584Z,20.60
2018-06-12T00:48:52.377Z,20.50
2018-06-12T00:51:23.144Z,20.60
2018-06-12T00:53:53.974Z,20.60
2018-06-12T00:56:41.124Z,20.50
2018-06-12T00:59:11.875Z,20.50
2018-06-12T01:01:43.400Z,20.50
2018-06-12T01:04:14.120Z,20.40
2018-06-12T01:06:44.900Z,20.40
2018-06-12T01:09:15.697Z,20.40
2018-06-12T01:14:16.673Z,20.30
2018-06-12T01:16:48.447Z,20.30
2018-06-12T01:19:19.240Z,20.20
2018-06-12T01:21:50.036Z,20.10
2018-06-12T01:24:21.040Z,20.10
2018-06-12T01:26:51.769Z,20.10
2018-06-12T01:29:22.963Z,20.10
2018-06-12T01:31:54.885Z,20.10
2018-06-12T01:34:25.740Z,20.10
2018-06-12T01:36:56.471Z,20.10
2018-06-12T01:39:27.215Z,20.00
2018-06-12T01:41:57.955Z,20.00
2018-06-12T01:44:28.779Z,20.00
2018-06-12T01:46:59.565Z,20.00
2018-06-12T01:52:00.556Z,20.10
2018-06-12T01:54:31.329Z,20.00
2018-06-12T01:57:02.743Z,19.90
2018-06-12T01:59:33.564Z,20.00
2018-06-12T02:02:04.699Z,19.90
2018-06-12T02:04:35.465Z,19.90
2018-06-12T02:07:06.186Z,20.00
2018-06-12T02:09:37.050Z,19.90
2018-06-12T02:12:07.888Z,19.90
2018-06-12T02:14:38.612Z,19.90
2018-06-12T02:17:10.035Z,20.00
2018-06-12T02:22:11.009Z,20.00
2018-06-12T02:24:41.964Z,20.00
2018-06-12T02:27:30.600Z,20.10
2018-06-12T02:30:01.374Z,20.10
2018-06-12T02:32:32.254Z,20.20
2018-06-12T02:35:02.996Z,20.20
2018-06-12T02:37:33.759Z,20.20
2018-06-12T02:40:04.580Z,20.30
2018-06-12T02:42:35.322Z,20.20
2018-06-12T02:45:07.423Z,20.20
2018-06-12T02:50:08.487Z,20.30
2018-06-12T02:52:39.231Z,20.30
2018-06-12T02:55:09.921Z,20.30
2018-06-12T02:57:40.751Z,20.30
2018-06-12T03:00:11.553Z,20.30
2018-06-12T03:02:42.277Z,20.30
2018-06-12T03:05:13.100Z,20.30
2018-06-12T03:07:43.974Z,20.40
2018-06-12T03:10:14.775Z,20.30
2018-06-12T03:12:45.571Z,20.30
2018-06-12T03:15:16.431Z,20.30
2018-06-12T03:17:47.194Z,20.30
2018-06-12T03:20:18.092Z,20.20
2018-06-12T03:25:19.188Z,20.20
2018-06-12T03:27:55.532Z,20.20
2018-06-12T03:30:26.276Z,20.20
2018-06-12T03:32:56.921Z,20.20
2018-06-12T03:35:27.622Z,20.30
2018-06-12T03:37:58.313Z,20.40
2018-06-12T03:40:29.101Z,20.40
2018-06-12T03:42:59.727Z,20.40
2018-06-12T03:45:30.378Z,20.50
2018-06-12T03:48:01.091Z,20.50
2018-06-12T03:50:31.802Z,20.50
2018-06-12T03:53:02.464Z,20.60
2018-06-12T03:55:33.392Z,20.60
2018-06-12T03:58:04.684Z,20.50
2018-06-12T04:00:35.627Z,20.30
2018-06-12T04:03:06.524Z,20.20
2018-06-12T04:05:37.463Z,20.10
2018-06-12T04:08:08.217Z,20.00
2018-06-12T04:10:39.037Z,19.90
2018-06-12T04:13:09.712Z,19.90
2018-06-12T04:15:40.497Z,20.00
2018-06-12T04:18:11.283Z,19.90
2018-06-12T04:20:42.072Z,19.80
2018-06-12T04:23:12.846Z,19.70
2018-06-12T04:25:43.956Z,19.70
2018-06-12T04:28:14.695Z,19.70
2018-06-12T04:30:45.563Z,19.70
2018-06-12T04:33:16.346Z,19.70
2018-06-12T04:35:47.183Z,19.70
2018-06-12T04:38:17.945Z,19.70
2018-06-12T04:40:51.450Z,19.70
2018-06-12T04:43:22.158Z,19.80
2018-06-12T04:45:53.008Z,19.80
2018-06-12T04:48:23.789Z,19.90
2018-06-12T04:50:54.450Z,19.90
2018-06-12T04:53:25.069Z,20.00
2018-06-12T04:55:55.728Z,20.00
2018-06-12T04:58:26.422Z,20.10
2018-06-12T05:03:28.527Z,20.20
2018-06-12T05:05:59.198Z,20.20
2018-06-12T05:08:29.841Z,20.30
2018-06-12T05:11:00.672Z,20.30
2018-06-12T05:13:31.332Z,20.40
2018-06-12T05:18:32.140Z,20.50
2018-06-12T05:21:02.873Z,20.50
2018-06-12T05:23:33.645Z,20.60
2018-06-12T05:26:04.712Z,20.60
2018-06-12T05:28:35.353Z,20.70
2018-06-12T05:31:06.098Z,20.70
2018-06-12T05:33:36.786Z,20.70
2018-06-12T05:36:07.447Z,20.80
2018-06-12T05:38:38.268Z,21.00
2018-06-12T05:41:08.914Z,21.20
2018-06-12T05:43:39.582Z,21.20
2018-06-12T05:46:10.332Z,21.30
2018-06-12T05:48:41.080Z,21.50
2018-06-12T05:51:11.815Z,21.50
2018-06-12T05:53:43.198Z,21.40
2018-06-12T05:56:13.896Z,21.40
2018-06-12T05:58:44.594Z,21.40
2018-06-12T06:01:15.361Z,21.50
2018-06-12T06:03:46.030Z,21.40
2018-06-12T06:06:16.726Z,21.30
2018-06-12T06:08:47.464Z,21.20
2018-06-12T06:11:18.302Z,21.30
2018-06-12T06:13:49.065Z,21.40
2018-06-12T06:16:19.933Z,21.50
2018-06-12T06:18:50.674Z,21.50
2018-06-12T06:21:21.371Z,21.50
2018-06-12T06:23:52.257Z,21.40
2018-06-12T06:26:23.587Z,21.40
2018-06-12T06:28:56.008Z,21.40
2018-06-12T06:33:57.188Z,21.60
2018-06-12T06:36:27.989Z,21.60
2018-06-12T06:38:58.652Z,21.70
2018-06-12T06:41:31.541Z,21.70
2018-06-12T06:44:03.022Z,21.90
2018-06-12T06:46:37.937Z,22.00
2018-06-12T06:49:08.876Z,22.10
2018-06-12T06:51:39.643Z,22.30
2018-06-12T06:54:10.275Z,22.50
2018-06-12T06:56:41.212Z,22.60
2018-06-12T06:59:12.087Z,22.60
2018-06-12T07:01:42.867Z,22.60
2018-06-12T07:04:13.686Z,22.80
2018-06-12T07:06:44.600Z,23.30
2018-06-12T07:09:15.480Z,24.60
2018-06-12T07:11:46.298Z,26.20
2018-06-12T07:14:17.024Z,27.20
2018-06-12T07:16:47.887Z,27.00
2018-06-12T07:19:18.736Z,27.50
2018-06-12T07:21:49.574Z,27.70
2018-06-12T07:24:20.272Z,27.90
2018-06-12T07:26:51.328Z,28.10
2018-06-12T07:29:22.130Z,27.90
2018-06-12T07:31:52.966Z,27.30
2018-06-12T07:34:23.775Z,26.80
2018-06-12T07:36:54.587Z,26.40
2018-06-12T07:39:25.391Z,26.00
2018-06-12T07:41:56.185Z,25.80
2018-06-12T07:46:57.431Z,25.60
2018-06-12T07:49:28.451Z,25.70
2018-06-12T07:51:59.282Z,26.20
2018-06-12T07:54:30.271Z,27.10
2018-06-12T08:02:01.869Z,29.00
2018-06-12T08:04:32.625Z,30.20
2018-06-12T08:07:03.536Z,30.70
2018-06-12T08:09:34.273Z,30.90
2018-06-12T08:12:05.062Z,30.40
2018-06-12T08:14:36.009Z,29.70
2018-06-12T08:17:06.943Z,29.00
2018-06-12T08:19:37.746Z,28.40
2018-06-12T08:22:08.946Z,28.10
2018-06-12T08:24:39.868Z,27.90
2018-06-12T08:29:41.254Z,30.40
2018-06-12T08:32:12.136Z,31.60
2018-06-12T08:34:42.779Z,32.00
2018-06-12T08:37:13.480Z,31.60
2018-06-12T08:39:44.259Z,31.00
2018-06-12T08:42:15.428Z,30.60
2018-06-12T08:47:16.410Z,29.50
2018-06-12T08:49:47.265Z,28.90
2018-06-12T08:52:18.165Z,29.00
2018-06-12T08:54:49.132Z,29.40
2018-06-12T08:57:19.991Z,29.70
2018-06-12T08:59:51.025Z,29.90
2018-06-12T09:02:21.871Z,29.80
2018-06-12T09:04:52.647Z,29.90
2018-06-12T09:12:23.995Z,31.60
2018-06-12T09:14:54.692Z,31.40
2018-06-12T09:17:25.496Z,30.80
2018-06-12T09:19:57.431Z,30.30
2018-06-12T09:22:28.447Z,30.80
2018-06-12T09:24:59.133Z,31.90
2018-06-12T09:27:33.986Z,32.70
2018-06-12T09:30:04.780Z,33.10
2018-06-12T09:32:35.566Z,33.40
2018-06-12T09:35:06.630Z,33.60
2018-06-12T09:37:37.255Z,34.30
2018-06-12T09:40:07.875Z,33.80
2018-06-12T09:42:38.549Z,33.10
2018-06-12T09:45:09.153Z,33.00
2018-06-12T09:47:39.765Z,33.20
2018-06-12T09:50:10.386Z,32.90
2018-06-12T09:52:41.120Z,32.50
2018-06-12T09:55:11.821Z,32.10
2018-06-12T09:57:42.468Z,31.50
2018-06-12T10:00:13.202Z,31.40
2018-06-12T10:02:43.875Z,31.90
2018-06-12T10:05:14.541Z,32.20
2018-06-12T10:10:15.473Z,33.50
2018-06-12T10:12:46.085Z,34.00
2018-06-12T10:15:16.740Z,34.50
2018-06-12T10:17:47.353Z,35.00
2018-06-12T10:20:17.997Z,34.90
2018-06-12T10:22:48.583Z,35.00
2018-06-12T10:25:19.172Z,35.10
2018-06-12T10:27:50.254Z,34.80
2018-06-12T10:30:20.956Z,34.80
2018-06-12T10:35:21.659Z,34.90
2018-06-12T10:37:52.318Z,34.80
2018-06-12T10:40:22.900Z,34.80
2018-06-12T10:42:53.555Z,34.90
2018-06-12T10:45:24.043Z,34.80
2018-06-12T10:47:54.628Z,34.50
2018-06-12T10:50:25.225Z,33.80
2018-06-12T10:52:55.825Z,33.30
2018-06-12T10:55:26.422Z,33.40
2018-06-12T10:57:57.123Z,33.10
2018-06-12T11:00:27.792Z,32.70
2018-06-12T11:02:58.468Z,32.50
2018-06-12T11:05:29.063Z,32.40
2018-06-12T11:07:59.633Z,32.30
2018-06-12T11:10:30.249Z,32.10
2018-06-12T11:13:00.986Z,31.90
2018-06-12T11:15:31.650Z,31.70
2018-06-12T11:18:02.296Z,32.00
2018-06-12T11:20:33.145Z,32.40
2018-06-12T11:23:03.836Z,32.60
2018-06-12T11:25:34.505Z,33.00
2018-06-12T11:28:05.741Z,32.90
2018-06-12T11:30:36.402Z,33.10
2018-06-12T11:35:37.208Z,32.70
2018-06-12T11:38:08.644Z,32.50
2018-06-12T11:40:40.333Z,32.30
2018-06-12T11:43:10.894Z,32.00
2018-06-12T11:48:11.804Z,31.40
2018-06-12T11:50:42.366Z,31.10
2018-06-12T11:53:13.158Z,31.10
2018-06-12T11:55:43.869Z,31.00
2018-06-12T11:58:14.505Z,30.70
2018-06-12T12:00:45.649Z,30.60
2018-06-12T12:03:16.361Z,30.50
2018-06-12T12:08:17.188Z,30.50
2018-06-12T12:10:47.874Z,30.60
2018-06-12T12:13:18.654Z,30.60
2018-06-12T12:15:49.329Z,30.60
2018-06-12T12:18:19.977Z,30.70
2018-06-12T12:20:50.748Z,30.70
2018-06-12T12:23:21.453Z,30.90
2018-06-12T12:25:52.694Z,30.90
2018-06-12T12:28:23.546Z,30.80
2018-06-12T12:30:54.189Z,30.60
2018-06-12T12:33:25.009Z,30.40
2018-06-12T12:35:55.696Z,30.30
2018-06-12T12:40:56.471Z,30.10
2018-06-12T12:43:27.217Z,30.20
2018-06-12T12:45:57.916Z,30.10
2018-06-12T12:48:28.683Z,30.00
2018-06-12T12:50:59.385Z,30.00
2018-06-12T12:53:30.200Z,29.90
2018-06-12T12:56:00.835Z,30.00
2018-06-12T12:58:31.646Z,29.90
2018-06-12T13:01:02.421Z,29.90
2018-06-12T13:03:33.161Z,29.90
2018-06-12T13:06:03.932Z,29.90
2018-06-12T13:08:34.663Z,29.90
2018-06-12T13:11:05.432Z,29.90
2018-06-12T13:13:36.163Z,30.00
2018-06-12T13:16:07.053Z,29.90
2018-06-12T13:18:38.904Z,29.80
2018-06-12T13:21:09.636Z,29.70
2018-06-12T13:23:40.376Z,29.70
2018-06-12T13:26:11.715Z,29.90
2018-06-12T13:29:00.636Z,30.00
2018-06-12T13:37:01.968Z,29.90
2018-06-12T13:39:32.769Z,29.70
2018-06-12T13:42:03.449Z,29.60
2018-06-12T13:44:34.211Z,29.70
2018-06-12T13:47:05.026Z,29.60
2018-06-12T13:49:36.124Z,29.50
2018-06-12T13:52:06.881Z,29.40
2018-06-12T13:54:37.618Z,29.40
2018-06-12T13:57:08.387Z,29.40
2018-06-12T13:59:39.287Z,29.40
2018-06-12T14:02:09.993Z,29.50
2018-06-12T14:04:40.731Z,29.40
2018-06-12T14:07:11.575Z,29.40
2018-06-12T14:09:42.416Z,29.30
2018-06-12T14:12:13.137Z,29.30
2018-06-12T14:14:43.948Z,29.20
2018-06-12T14:17:14.777Z,29.10
2018-06-12T14:19:45.547Z,29.10
2018-06-12T14:22:16.958Z,29.20
2018-06-12T14:24:47.772Z,29.20
2018-06-12T14:27:18.545Z,28.90
2018-06-12T14:29:49.550Z,28.70
2018-06-12T14:32:20.299Z,28.50
2018-06-12T14:34:51.137Z,28.30
2018-06-12T14:37:21.977Z,28.10
2018-06-12T14:39:52.662Z,28.00
2018-06-12T14:42:23.429Z,27.90
2018-06-12T14:44:54.230Z,27.90
2018-06-12T14:47:25.028Z,27.90
2018-06-12T14:52:26.316Z,27.70
2018-06-12T14:54:57.380Z,27.60
2018-06-12T14:57:28.475Z,27.60
2018-06-12T14:59:59.483Z,27.50
2018-06-12T15:02:30.354Z,27.30
2018-06-12T15:05:01.288Z,27.30
2018-06-12T15:07:33.199Z,27.20
2018-06-12T15:10:04.201Z,27.20
2018-06-12T15:13:38.281Z,27.10
2018-06-12T15:16:29.651Z,27.00
2018-06-12T15:19:08.798Z,26.90
